Time;durP1;ratioP1;P1;durP2;ratioP2;P2;SDS_P1;SDS_P2;PMS_P1;PMS_P2;Temp;Humidity;BMP_temperature;BMP_pressure;BME280_temperature;BME280_humidity;BME280_pressure;Samples;Min_cycle;Max_cycle;Signal;HPM_P1;HPM_P2
2022/04/30 00:00:05;;;;;;;9.38;6.25;;;8.10;99.90;;;;;;5020955;28;20029;-38
2022/04/30 00:02:31;;;;;;;7.40;5.70;;;8.10;99.90;;;;;;5016064;28;20120;-37
2022/04/30 00:04:57;;;;;;;6.32;5.25;;;8.00;99.90;;;;;;5019596;28;20509;-38
2022/04/30 00:07:22;;;;;;;10.93;5.60;;;7.80;99.90;;;;;;5018630;28;20122;-38
2022/04/30 00:09:48;;;;;;;9.63;5.85;;;7.70;99.90;;;;;;5017059;28;20030;-39
2022/04/30 00:12:18;;;;;;;6.43;5.35;;;7.70;99.90;;;;;;5015531;28;20060;-37
2022/04/30 00:14:46;;;;;;;7.03;5.50;;;7.70;99.90;;;;;;5022517;28;20049;-39
2022/04/30 00:17:13;;;;;;;8.10;6.03;;;7.80;99.90;;;;;;5017749;28;20116;-36
2022/04/30 00:19:39;;;;;;;7.25;5.18;;;7.80;99.90;;;;;;5015416;28;20041;-36
2022/04/30 00:22:04;;;;;;;6.22;4.97;;;7.80;99.90;;;;;;5025124;28;20022;-37
2022/04/30 00:24:30;;;;;;;7.45;5.80;;;7.80;99.90;;;;;;5022303;28;20037;-36
2022/04/30 00:26:58;;;;;;;6.20;5.55;;;7.70;99.90;;;;;;5021415;28;20115;-37
2022/04/30 00:29:24;;;;;;;6.97;5.25;;;7.80;99.90;;;;;;5012413;28;20037;-37
2022/04/30 00:31:50;;;;;;;5.97;4.88;;;7.80;99.90;;;;;;5019694;28;20176;-39
2022/04/30 00:34:16;;;;;;;6.38;5.35;;;7.80;99.90;;;;;;5013250;28;20036;-38
2022/04/30 00:36:42;;;;;;;8.30;5.80;;;7.80;99.90;;;;;;5015054;28;20029;-36
2022/04/30 00:39:07;;;;;;;9.95;6.18;;;7.70;99.90;;;;;;5022258;28;20029;-39
2022/04/30 00:41:33;;;;;;;7.85;5.43;;;7.70;99.90;;;;;;5020409;28;20030;-38
2022/04/30 00:44:00;;;;;;;6.43;4.65;;;7.80;99.90;;;;;;5017235;28;20037;-39
2022/04/30 00:46:29;;;;;;;8.82;5.13;;;7.70;99.90;;;;;;5017968;28;20030;-37
2022/04/30 00:48:57;;;;;;;8.13;5.80;;;7.70;99.90;;;;;;5014934;28;20045;-38
2022/04/30 00:51:23;;;;;;;8.50;5.63;;;7.70;99.90;;;;;;5022237;28;20034;-38
2022/04/30 00:53:54;;;;;;;8.05;5.63;;;7.70;99.90;;;;;;5016546;28;20030;-38
2022/04/30 00:56:52;;;;;;;7.53;5.18;;;7.60;99.90;;;;;;5018507;28;20913;-38
2022/04/30 00:59:19;;;;;;;6.95;5.20;;;7.70;99.90;;;;;;5005831;28;20045;-39
2022/04/30 01:01:46;;;;;;;5.25;4.60;;;7.70;99.90;;;;;;5016123;28;20090;-32
2022/04/30 01:04:16;;;;;;;8.55;5.28;;;7.50;99.90;;;;;;5014300;28;20029;-32
2022/04/30 01:07:01;;;;;;;6.25;5.35;;;7.50;99.90;;;;;;5019095;28;20090;-33
2022/04/30 01:09:28;;;;;;;7.38;5.50;;;7.50;99.90;;;;;;5016318;28;20549;-36
2022/04/30 01:11:59;;;;;;;7.40;5.63;;;7.50;99.90;;;;;;5017981;28;20053;-35
2022/04/30 01:14:29;;;;;;;7.75;5.28;;;7.50;99.90;;;;;;5015461;28;20565;-33
2022/04/30 01:16:57;;;;;;;7.43;5.72;;;7.50;99.90;;;;;;5018379;28;20540;-35
2022/04/30 01:19:24;;;;;;;9.13;6.13;;;7.60;99.90;;;;;;5019576;28;20033;-33
2022/04/30 01:21:57;;;;;;;7.03;5.45;;;7.60;99.90;;;;;;5017338;28;21004;-33
2022/04/30 01:24:25;;;;;;;5.70;5.10;;;7.50;99.90;;;;;;5019329;28;20033;-33
2022/04/30 01:26:53;;;;;;;7.10;5.30;;;7.60;99.90;;;;;;5026754;28;20421;-33
2022/04/30 01:29:21;;;;;;;7.60;5.75;;;7.60;99.90;;;;;;5022226;28;20123;-33
2022/04/30 01:37:25;;;;;;;6.80;5.13;;;7.50;99.90;;;;;;5024283;28;20048;-33
2022/04/30 01:40:12;;;;;;;7.25;5.50;;;7.40;99.90;;;;;;5021940;28;20037;-32
2022/04/30 01:42:46;;;;;;;8.18;5.75;;;7.40;99.90;;;;;;5024710;28;20072;-33
2022/04/30 01:45:14;;;;;;;9.38;5.53;;;7.50;99.90;;;;;;5019234;28;20207;-33
2022/04/30 01:47:45;;;;;;;6.57;4.90;;;7.40;99.90;;;;;;5021231;28;20033;-33
2022/04/30 01:50:11;;;;;;;6.88;5.38;;;7.10;99.90;;;;;;5019049;28;20026;-32
2022/04/30 01:52:37;;;;;;;7.90;5.25;;;7.10;99.90;;;;;;5015363;28;20376;-33
2022/04/30 01:55:03;;;;;;;6.20;4.88;;;7.10;99.90;;;;;;5017655;28;20509;-33
2022/04/30 01:57:29;;;;;;;6.43;4.80;;;7.10;99.90;;;;;;5022587;28;20042;-32
2022/04/30 01:59:59;;;;;;;6.03;4.63;;;7.00;99.90;;;;;;5020947;28;20072;-32
2022/04/30 02:02:29;;;;;;;5.00;3.95;;;6.80;99.90;;;;;;5018507;28;20048;-32
2022/04/30 02:04:57;;;;;;;4.35;3.95;;;6.60;99.90;;;;;;5016099;28;21528;-33
2022/04/30 02:07:25;;;;;;;7.55;5.13;;;6.60;99.90;;;;;;5021532;28;20390;-33
2022/04/30 02:09:52;;;;;;;7.15;5.65;;;6.60;99.90;;;;;;5019168;28;20079;-33
2022/04/30 02:12:18;;;;;;;8.30;6.28;;;6.60;99.90;;;;;;5047098;28;20025;-34
2022/04/30 02:14:50;;;;;;;8.23;6.18;;;6.40;99.90;;;;;;5018662;28;20482;-33
2022/04/30 02:17:17;;;;;;;9.35;6.50;;;6.40;99.90;;;;;;5016979;28;20504;-33
2022/04/30 02:22:30;;;;;;;9.98;6.90;;;6.40;99.90;;;;;;5014688;28;20083;-32
2022/04/30 02:24:59;;;;;;;7.60;6.55;;;6.10;99.90;;;;;;5016663;28;20039;-33
2022/04/30 02:27:26;;;;;;;8.63;6.28;;;6.30;99.90;;;;;;5022920;28;20087;-33
2022/04/30 02:29:52;;;;;;;8.85;6.25;;;6.40;99.90;;;;;;5018147;28;20760;-33
2022/04/30 02:32:17;;;;;;;11.05;6.45;;;6.40;99.90;;;;;;5023773;28;20048;-33
2022/04/30 02:34:43;;;;;;;11.57;6.07;;;6.50;99.90;;;;;;5016579;28;20029;-33
2022/04/30 02:37:14;;;;;;;9.43;6.68;;;6.30;99.90;;;;;;5020762;28;20053;-32
2022/04/30 02:39:43;;;;;;;11.48;6.68;;;6.30;99.90;;;;;;5023157;28;20486;-33
2022/04/30 02:42:11;;;;;;;7.57;6.10;;;6.30;99.90;;;;;;5018041;28;20052;-32
2022/04/30 02:44:37;;;;;;;7.50;6.13;;;6.40;99.90;;;;;;5019613;28;20042;-33
2022/04/30 02:47:03;;;;;;;10.70;6.05;;;6.40;99.90;;;;;;5014802;28;20513;-34
2022/04/30 02:49:29;;;;;;;8.73;6.38;;;6.40;99.90;;;;;;5021952;28;20025;-33
2022/04/30 02:51:54;;;;;;;10.50;6.60;;;6.40;99.90;;;;;;5018020;28;20028;-34
2022/04/30 02:54:20;;;;;;;8.10;5.35;;;6.50;99.90;;;;;;5020537;28;20058;-32
2022/04/30 02:56:45;;;;;;;6.50;5.13;;;6.40;99.90;;;;;;5022096;28;20379;-32
2022/04/30 03:02:09;;;;;;;6.10;5.05;;;6.60;99.90;;;;;;4993607;28;20045;-33
2022/04/30 03:04:35;;;;;;;8.20;4.85;;;6.60;99.90;;;;;;5018113;28;20639;-33
2022/04/30 03:07:01;;;;;;;5.82;4.38;;;6.60;99.90;;;;;;5017239;28;20041;-32
2022/04/30 03:09:27;;;;;;;6.47;5.18;;;6.70;99.90;;;;;;5016539;28;20443;-33
2022/04/30 03:11:52;;;;;;;8.45;6.00;;;6.70;99.90;;;;;;5022109;28;20041;-33
2022/04/30 03:14:18;;;;;;;8.10;5.85;;;6.60;99.90;;;;;;5022167;28;20401;-33
2022/04/30 03:22:12;;;;;;;8.75;6.30;;;6.60;99.90;;;;;;5017564;28;20060;-33
2022/04/30 03:24:38;;;;;;;11.13;7.25;;;6.40;99.90;;;;;;5018103;28;20037;-33
2022/04/30 03:27:04;;;;;;;10.48;6.75;;;6.40;99.90;;;;;;5012315;28;20045;-33
2022/04/30 03:29:30;;;;;;;8.32;6.43;;;6.30;99.90;;;;;;5021468;28;20458;-33
2022/04/30 03:31:56;;;;;;;8.80;6.22;;;6.30;99.90;;;;;;5017339;28;20037;-32
2022/04/30 03:34:21;;;;;;;7.78;6.47;;;6.40;99.90;;;;;;5016026;28;20025;-33
2022/04/30 03:36:47;;;;;;;8.88;5.85;;;6.40;99.90;;;;;;5013118;28;20025;-32
2022/04/30 03:39:13;;;;;;;8.75;5.88;;;6.40;99.90;;;;;;5020389;28;20039;-33
2022/04/30 03:41:38;;;;;;;6.88;5.78;;;6.40;99.90;;;;;;5020441;28;20087;-33
2022/04/30 03:44:05;;;;;;;8.32;6.05;;;6.30;99.90;;;;;;5018007;28;20405;-33
2022/04/30 03:46:31;;;;;;;8.05;6.47;;;6.30;99.90;;;;;;5018789;28;20036;-32
2022/04/30 03:48:57;;;;;;;7.50;5.85;;;6.40;99.90;;;;;;5021949;28;20524;-35
2022/04/30 03:51:23;;;;;;;9.43;5.45;;;6.30;99.90;;;;;;5018270;28;20029;-32
2022/04/30 03:53:50;;;;;;;10.75;6.53;;;6.30;99.90;;;;;;5019654;28;20040;-33
2022/04/30 03:56:17;;;;;;;9.30;6.68;;;6.30;99.90;;;;;;5042644;28;20111;-32
2022/04/30 03:58:47;;;;;;;9.80;6.22;;;6.40;99.90;;;;;;5021142;28;20064;-32
2022/04/30 04:01:13;;;;;;;8.32;6.18;;;6.30;99.90;;;;;;5017867;28;20880;-33
2022/04/30 04:03:40;;;;;;;10.13;6.35;;;6.20;99.90;;;;;;5016516;28;20030;-34
2022/04/30 04:06:06;;;;;;;7.72;6.30;;;6.30;99.90;;;;;;5009930;28;20030;-33
2022/04/30 04:08:31;;;;;;;8.80;6.55;;;6.40;99.90;;;;;;5019445;28;20033;-34
2022/04/30 04:10:57;;;;;;;7.80;6.18;;;6.50;99.90;;;;;;5018224;28;20032;-33
2022/04/30 04:18:51;;;;;;;7.45;5.93;;;6.00;99.90;;;;;;5024691;28;21549;-34
2022/04/30 04:21:19;;;;;;;7.75;5.35;;;5.90;99.90;;;;;;5015828;28;20033;-34
2022/04/30 04:26:29;;;;;;;10.82;5.90;;;5.80;99.90;;;;;;5020309;28;20036;-35
2022/04/30 04:28:55;;;;;;;7.82;5.68;;;5.90;99.90;;;;;;5018165;28;20049;-33
2022/04/30 04:31:22;;;;;;;8.88;6.07;;;6.00;99.90;;;;;;5014586;28;20491;-33
2022/04/30 04:33:49;;;;;;;8.98;5.93;;;6.00;99.90;;;;;;5020689;28;20116;-32
2022/04/30 04:36:16;;;;;;;7.22;5.93;;;6.10;99.90;;;;;;5019357;28;20387;-33
2022/04/30 04:38:42;;;;;;;9.52;6.03;;;6.00;99.90;;;;;;5013466;28;20029;-35
2022/04/30 04:41:08;;;;;;;6.78;5.75;;;6.10;99.90;;;;;;5016376;28;20037;-33
2022/04/30 04:43:33;;;;;;;9.60;6.35;;;6.20;99.90;;;;;;5017375;28;20064;-33
2022/04/30 04:46:01;;;;;;;8.25;6.32;;;6.20;99.90;;;;;;5021490;28;20562;-33
2022/04/30 04:48:26;;;;;;;7.95;5.72;;;6.30;99.90;;;;;;5021082;28;20554;-33
2022/04/30 04:50:55;;;;;;;9.05;6.78;;;6.30;99.90;;;;;;5021411;28;20087;-33
2022/04/30 04:53:21;;;;;;;9.88;6.05;;;6.40;99.90;;;;;;5016882;28;20044;-33
2022/04/30 04:55:47;;;;;;;9.57;7.32;;;6.40;99.90;;;;;;5018617;28;20498;-33
2022/04/30 04:58:13;;;;;;;9.65;7.32;;;6.50;99.90;;;;;;5020790;28;20032;-32
2022/04/30 05:00:39;;;;;;;12.70;7.90;;;6.50;99.90;;;;;;5023912;28;20033;-33
2022/04/30 05:03:04;;;;;;;10.20;7.68;;;6.60;99.90;;;;;;5025812;28;20156;-33
2022/04/30 05:05:30;;;;;;;10.32;7.55;;;6.70;99.90;;;;;;5021686;28;20487;-34
2022/04/30 05:07:56;;;;;;;10.85;8.32;;;6.70;99.90;;;;;;5025288;28;20545;-33
2022/04/30 05:10:21;;;;;;;10.95;8.63;;;6.80;99.90;;;;;;5023415;28;20033;-33
2022/04/30 05:12:47;;;;;;;11.27;7.80;;;6.90;99.90;;;;;;5019790;28;20498;-33
2022/04/30 05:15:13;;;;;;;10.05;8.00;;;7.00;99.90;;;;;;5021932;28;20147;-33
2022/04/30 05:17:39;;;;;;;10.40;7.90;;;7.10;99.90;;;;;;5017970;28;20116;-33
2022/04/30 05:20:05;;;;;;;9.57;7.65;;;7.10;99.90;;;;;;5020943;28;20029;-33
2022/04/30 05:22:32;;;;;;;10.82;7.57;;;7.20;99.90;;;;;;5024266;28;20087;-32
2022/04/30 05:24:57;;;;;;;11.02;8.63;;;7.30;99.90;;;;;;5023481;28;20057;-33
2022/04/30 05:27:23;;;;;;;12.57;7.80;;;7.40;99.90;;;;;;5038718;28;20480;-33
2022/04/30 05:29:49;;;;;;;12.63;8.15;;;7.40;99.90;;;;;;5016668;28;20037;-33
2022/04/30 05:32:14;;;;;;;11.15;7.88;;;7.50;99.90;;;;;;5026115;28;20030;-34
2022/04/30 05:34:40;;;;;;;10.80;8.48;;;7.60;99.90;;;;;;5020276;28;20026;-32
2022/04/30 05:37:05;;;;;;;11.40;8.20;;;7.70;99.90;;;;;;5026795;28;20116;-32
2022/04/30 05:39:31;;;;;;;11.15;8.10;;;7.70;99.90;;;;;;5025294;28;20033;-32
2022/04/30 05:41:57;;;;;;;10.75;7.93;;;7.80;99.90;;;;;;5020358;28;20065;-33
2022/04/30 05:44:22;;;;;;;14.95;8.35;;;7.90;99.90;;;;;;5024098;28;20725;-32
2022/04/30 05:46:48;;;;;;;12.82;8.23;;;8.00;99.90;;;;;;5025584;28;20048;-34
2022/04/30 05:49:14;;;;;;;10.73;8.00;;;8.00;99.90;;;;;;5019949;28;20163;-32
2022/04/30 05:51:40;;;;;;;11.93;8.82;;;8.00;99.90;;;;;;5024564;28;20117;-33
2022/04/30 05:54:05;;;;;;;10.88;7.68;;;8.00;99.90;;;;;;5019308;28;20030;-34
2022/04/30 05:56:31;;;;;;;14.70;8.80;;;8.20;99.90;;;;;;5022631;28;20033;-32
2022/04/30 05:58:57;;;;;;;12.02;8.82;;;8.10;99.90;;;;;;5020444;28;20094;-32
2022/04/30 06:01:22;;;;;;;11.73;8.43;;;8.20;99.90;;;;;;5018948;28;20048;-33
2022/04/30 06:03:48;;;;;;;10.65;8.10;;;8.20;99.90;;;;;;5021799;28;20030;-33
2022/04/30 06:06:13;;;;;;;11.75;8.52;;;8.20;99.90;;;;;;5015900;28;20402;-33
2022/04/30 06:08:39;;;;;;;10.55;8.93;;;8.20;99.90;;;;;;5015748;28;20068;-35
2022/04/30 06:11:04;;;;;;;9.43;7.72;;;8.30;99.90;;;;;;5024206;28;20398;-32
2022/04/30 06:13:30;;;;;;;10.30;7.70;;;8.30;99.90;;;;;;5017549;28;20081;-33
2022/04/30 06:15:56;;;;;;;10.00;7.82;;;8.40;99.90;;;;;;5020552;28;20048;-34
2022/04/30 06:18:22;;;;;;;11.55;8.57;;;8.40;99.90;;;;;;5012598;28;20059;-34
2022/04/30 06:20:47;;;;;;;11.77;8.30;;;8.50;99.90;;;;;;5021535;28;20116;-33
2022/04/30 06:23:16;;;;;;;12.32;8.43;;;8.50;99.90;;;;;;5023930;28;20060;-35
2022/04/30 06:25:43;;;;;;;13.02;9.10;;;8.60;99.90;;;;;;5021283;28;20025;-33
2022/04/30 06:28:09;;;;;;;12.00;8.55;;;8.60;99.90;;;;;;5017304;28;20026;-33
2022/04/30 06:30:35;;;;;;;12.65;8.73;;;8.60;99.90;;;;;;5020766;28;20040;-35
2022/04/30 06:33:01;;;;;;;13.00;8.50;;;8.60;99.90;;;;;;5016971;28;20498;-32
2022/04/30 06:35:27;;;;;;;11.25;8.00;;;8.70;99.90;;;;;;5015697;28;20029;-32
2022/04/30 06:37:52;;;;;;;11.60;8.57;;;8.70;99.90;;;;;;5021679;28;20071;-32
2022/04/30 06:40:20;;;;;;;15.32;8.00;;;8.70;99.90;;;;;;5013607;28;20034;-32
2022/04/30 06:42:45;;;;;;;12.27;7.70;;;8.80;99.90;;;;;;5019924;28;20037;-36
2022/04/30 06:45:12;;;;;;;14.35;8.60;;;8.80;99.90;;;;;;5028847;28;20072;-34
2022/04/30 06:47:39;;;;;;;10.35;8.02;;;8.90;99.90;;;;;;5005541;28;21205;-34
2022/04/30 06:50:06;;;;;;;12.10;8.60;;;8.90;99.90;;;;;;5013407;28;20075;-33
2022/04/30 06:52:32;;;;;;;14.30;9.38;;;9.00;99.90;;;;;;5018482;28;20117;-33
2022/04/30 06:57:46;;;;;;;12.02;8.25;;;9.10;99.90;;;;;;5018757;28;20041;-33
2022/04/30 07:02:57;;;;;;;12.93;8.35;;;9.30;99.90;;;;;;5017475;28;20057;-33
2022/04/30 07:05:22;;;;;;;15.20;9.20;;;9.40;99.90;;;;;;5018384;28;20061;-34
2022/04/30 07:07:48;;;;;;;13.93;8.57;;;9.50;99.90;;;;;;5019307;28;20036;-32
2022/04/30 07:10:14;;;;;;;12.60;8.82;;;9.60;99.90;;;;;;5020322;28;20107;-33
2022/04/30 07:12:40;;;;;;;17.42;9.82;;;9.70;99.90;;;;;;5019600;28;20573;-33
2022/04/30 07:15:06;;;;;;;16.75;9.65;;;9.80;99.90;;;;;;5018048;28;20055;-33
2022/04/30 07:17:32;;;;;;;13.15;9.32;;;9.90;99.90;;;;;;5017043;28;20047;-33
2022/04/30 07:19:57;;;;;;;13.25;9.32;;;10.00;99.90;;;;;;5020529;28;20025;-36
2022/04/30 07:22:23;;;;;;;19.73;9.68;;;10.10;99.90;;;;;;5017810;28;20059;-32
2022/04/30 07:24:51;;;;;;;16.77;10.25;;;10.20;99.90;;;;;;5020149;28;20083;-33
2022/04/30 07:27:16;;;;;;;16.55;10.77;;;10.30;99.90;;;;;;5018738;28;20025;-32
2022/04/30 07:29:43;;;;;;;15.00;9.85;;;10.30;99.90;;;;;;5032656;28;20065;-33
2022/04/30 07:32:09;;;;;;;17.17;9.60;;;10.50;99.90;;;;;;5019869;28;20033;-32
2022/04/30 07:34:36;;;;;;;15.95;10.38;;;10.60;99.90;;;;;;5021829;28;21028;-33
2022/04/30 07:37:01;;;;;;;14.10;9.38;;;10.60;99.90;;;;;;5019694;28;21584;-35
2022/04/30 07:39:27;;;;;;;15.93;10.48;;;10.80;99.90;;;;;;5020596;28;20037;-33
2022/04/30 07:41:54;;;;;;;14.38;10.57;;;10.80;99.90;;;;;;5012015;28;20029;-33
2022/04/30 07:44:21;;;;;;;14.75;9.18;;;10.70;99.90;;;;;;5012810;28;20148;-34
2022/04/30 07:46:46;;;;;;;9.93;7.13;;;10.70;99.90;;;;;;5015058;28;20036;-32
2022/04/30 07:49:12;;;;;;;15.18;9.93;;;10.70;99.90;;;;;;5016732;28;20021;-34
2022/04/30 07:51:42;;;;;;;13.27;8.88;;;10.70;99.90;;;;;;5022592;28;20164;-34
2022/04/30 07:54:08;;;;;;;16.02;9.50;;;10.70;99.90;;;;;;5019082;28;20029;-32
2022/04/30 07:56:34;;;;;;;13.60;9.68;;;10.80;99.90;;;;;;5023879;28;20045;-33
2022/04/30 07:59:00;;;;;;;16.08;10.23;;;10.70;99.90;;;;;;5019783;28;20040;-35
2022/04/30 08:01:25;;;;;;;12.02;8.25;;;10.70;99.90;;;;;;5019222;28;20167;-34
2022/04/30 08:03:51;;;;;;;15.85;10.50;;;10.70;99.90;;;;;;5022512;28;20383;-32
2022/04/30 08:06:17;;;;;;;14.48;9.43;;;10.70;99.90;;;;;;5024496;28;20032;-33
2022/04/30 08:08:42;;;;;;;15.75;9.80;;;10.70;99.90;;;;;;5019261;28;20033;-33
2022/04/30 08:11:08;;;;;;;17.77;10.60;;;10.70;99.90;;;;;;5018744;28;20041;-32
2022/04/30 08:13:33;;;;;;;15.10;10.30;;;10.70;99.90;;;;;;5019173;28;20060;-32
2022/04/30 08:15:59;;;;;;;13.80;9.23;;;10.70;99.90;;;;;;5017615;28;20029;-33
2022/04/30 08:18:26;;;;;;;10.93;8.18;;;10.60;99.90;;;;;;5018680;28;20025;-33
2022/04/30 08:20:52;;;;;;;16.60;10.57;;;10.60;99.90;;;;;;5018993;28;20030;-33
2022/04/30 08:23:18;;;;;;;16.10;10.45;;;10.60;99.90;;;;;;5017907;28;20099;-33
2022/04/30 08:25:44;;;;;;;19.50;10.40;;;10.60;99.90;;;;;;5022522;28;20112;-33
2022/04/30 08:28:09;;;;;;;17.38;11.35;;;10.70;99.90;;;;;;5019328;28;20045;-33
2022/04/30 08:30:35;;;;;;;14.75;10.27;;;10.70;99.90;;;;;;5023609;28;20061;-33
2022/04/30 08:33:01;;;;;;;15.25;10.77;;;10.70;99.90;;;;;;5027809;28;20029;-33
2022/04/30 08:35:27;;;;;;;14.63;10.70;;;10.70;99.90;;;;;;5024447;28;20030;-34
2022/04/30 08:37:52;;;;;;;15.10;10.25;;;10.70;99.90;;;;;;5027319;28;20098;-33
2022/04/30 08:40:19;;;;;;;16.98;11.45;;;10.60;99.90;;;;;;5024665;28;20086;-33
2022/04/30 08:42:46;;;;;;;17.38;11.30;;;10.70;99.90;;;;;;5020959;28;20045;-32
2022/04/30 08:45:12;;;;;;;16.17;11.40;;;10.60;99.90;;;;;;5030037;28;20030;-33
2022/04/30 08:47:40;;;;;;;20.13;10.90;;;10.70;99.90;;;;;;5022681;28;20037;-33
2022/04/30 08:50:10;;;;;;;14.90;11.23;;;10.80;99.90;;;;;;5024979;28;20473;-32
2022/04/30 08:52:36;;;;;;;17.00;10.90;;;10.80;99.90;;;;;;5030064;28;20048;-33
2022/04/30 08:55:03;;;;;;;17.27;10.15;;;10.80;99.90;;;;;;5023763;28;20572;-34
2022/04/30 08:57:29;;;;;;;17.50;12.38;;;10.90;99.90;;;;;;5020631;28;20037;-36
2022/04/30 08:59:55;;;;;;;17.33;11.50;;;10.90;99.90;;;;;;5022363;28;20434;-32
2022/04/30 09:02:20;;;;;;;17.40;11.85;;;11.00;99.90;;;;;;5017887;28;20041;-33
2022/04/30 09:04:48;;;;;;;16.58;11.68;;;11.00;99.90;;;;;;5023607;28;20474;-33
2022/04/30 09:07:21;;;;;;;18.67;11.80;;;11.10;99.90;;;;;;5020466;28;20065;-33
2022/04/30 09:09:57;;;;;;;17.08;11.15;;;11.00;99.90;;;;;;5023792;28;20029;-34
2022/04/30 09:12:24;;;;;;;19.98;8.13;;;10.90;99.90;;;;;;5020959;28;20124;-33
2022/04/30 09:14:50;;;;;;;20.60;10.65;;;10.80;99.90;;;;;;5024416;28;20032;-33
2022/04/30 09:17:17;;;;;;;18.15;11.27;;;10.80;99.90;;;;;;5024849;28;20454;-32
2022/04/30 09:19:53;;;;;;;16.75;9.35;;;10.70;99.90;;;;;;5024220;28;20064;-32
2022/04/30 09:22:30;;;;;;;15.93;9.77;;;10.70;99.90;;;;;;5024753;28;20123;-34
2022/04/30 09:24:56;;;;;;;22.45;12.73;;;10.70;99.90;;;;;;5024410;28;20029;-35
2022/04/30 09:27:23;;;;;;;14.05;9.95;;;10.80;99.90;;;;;;5025271;28;20059;-33
2022/04/30 09:29:49;;;;;;;21.67;13.13;;;10.70;99.90;;;;;;5022017;28;20037;-34
2022/04/30 09:32:19;;;;;;;16.45;9.48;;;10.80;99.90;;;;;;5022728;28;20037;-33
2022/04/30 09:37:45;;;;;;;14.63;9.20;;;10.80;99.90;;;;;;5016682;28;20171;-33
2022/04/30 09:40:14;;;;;;;18.42;9.82;;;10.70;99.90;;;;;;5022587;28;20396;-34
2022/04/30 09:42:46;;;;;;;15.88;10.23;;;10.80;99.90;;;;;;5011945;28;20075;-34
2022/04/30 09:45:32;;;;;;;26.17;14.43;;;10.70;99.90;;;;;;5007356;28;20109;-32
2022/04/30 09:48:00;;;;;;;19.45;11.25;;;10.70;99.90;;;;;;5020054;28;20033;-32
2022/04/30 09:56:14;;;;;;;19.17;11.32;;;10.80;99.90;;;;;;5016849;28;20107;-33
2022/04/30 09:58:42;;;;;;;25.70;13.90;;;10.80;99.90;;;;;;5023653;28;20049;-33
2022/04/30 10:01:11;;;;;;;21.92;12.07;;;10.80;99.90;;;;;;5021224;28;20116;-33
2022/04/30 10:03:39;;;;;;;21.55;13.95;;;10.80;99.90;;;;;;5021033;28;20044;-33
2022/04/30 10:06:05;;;;;;;19.40;11.70;;;10.90;99.90;;;;;;5026335;28;20042;-33
2022/04/30 10:08:39;;;;;;;19.52;11.00;;;10.90;99.90;;;;;;5021961;28;20037;-33
2022/04/30 10:11:05;;;;;;;19.08;9.52;;;10.90;99.90;;;;;;5016134;28;20817;-33
2022/04/30 10:14:05;;;;;;;24.90;12.77;;;11.00;99.90;;;;;;5024220;28;20059;-35
2022/04/30 10:16:31;;;;;;;20.95;12.27;;;11.00;99.90;;;;;;5021011;28;20073;-35
2022/04/30 10:19:10;;;;;;;21.75;12.35;;;11.10;99.90;;;;;;5020027;28;20117;-33
2022/04/30 10:21:36;;;;;;;26.48;13.93;;;11.30;99.90;;;;;;5015863;28;20045;-34
2022/04/30 10:24:03;;;;;;;16.50;11.10;;;11.40;99.90;;;;;;5020989;28;20051;-33
2022/04/30 10:26:29;;;;;;;17.67;11.48;;;11.40;99.90;;;;;;5014707;28;21104;-33
2022/04/30 10:29:08;;;;;;;19.88;11.98;;;11.40;99.90;;;;;;5027413;28;20029;-34
2022/04/30 10:31:45;;;;;;;17.42;11.60;;;11.50;99.90;;;;;;5013466;28;20057;-33
2022/04/30 10:34:11;;;;;;;15.13;9.50;;;11.70;99.90;;;;;;5024229;28;20028;-35
2022/04/30 10:36:39;;;;;;;15.98;9.98;;;11.90;99.90;;;;;;5023292;28;20037;-33
2022/04/30 10:39:09;;;;;;;14.07;8.37;;;12.10;99.90;;;;;;5028321;28;20065;-33
2022/04/30 10:41:42;;;;;;;14.65;7.88;;;12.20;99.90;;;;;;5023673;28;20287;-33
2022/04/30 10:44:08;;;;;;;10.68;7.72;;;12.40;99.90;;;;;;5023775;28;20061;-33
2022/04/30 10:46:39;;;;;;;12.48;8.40;;;12.50;99.90;;;;;;5019443;28;20032;-33
2022/04/30 10:49:06;;;;;;;10.32;7.05;;;12.70;99.90;;;;;;5023780;28;20025;-33
2022/04/30 10:51:42;;;;;;;11.52;7.55;;;13.00;99.90;;;;;;5021520;28;20384;-33
2022/04/30 10:54:15;;;;;;;11.93;7.45;;;13.10;99.90;;;;;;5016804;28;20025;-35
2022/04/30 10:56:41;;;;;;;9.30;7.10;;;13.20;99.90;;;;;;5019925;28;20037;-34
2022/04/30 10:59:07;;;;;;;10.63;6.47;;;13.20;99.90;;;;;;5021288;28;20029;-34
2022/04/30 11:01:33;;;;;;;8.70;5.53;;;13.30;99.90;;;;;;5024558;28;20037;-34
2022/04/30 11:04:01;;;;;;;9.75;6.30;;;13.30;99.90;;;;;;5020517;28;20033;-34
2022/04/30 11:06:29;;;;;;;7.28;5.28;;;13.30;99.90;;;;;;5017261;28;20029;-34
2022/04/30 11:09:01;;;;;;;9.07;5.70;;;13.40;99.90;;;;;;5016392;28;20037;-33
2022/04/30 11:11:27;;;;;;;8.77;5.78;;;13.40;99.90;;;;;;5020418;28;20033;-35
2022/04/30 11:13:58;;;;;;;6.63;5.22;;;13.50;99.90;;;;;;5012483;28;20030;-33
2022/04/30 11:16:35;;;;;;;7.03;4.68;;;13.50;97.40;;;;;;5007895;28;20114;-34
2022/04/30 11:19:10;;;;;;;6.18;4.65;;;13.60;97.60;;;;;;5023068;28;20111;-33
2022/04/30 11:21:38;;;;;;;7.13;4.40;;;13.60;97.60;;;;;;5015127;28;20395;-33
2022/04/30 11:24:05;;;;;;;6.35;5.10;;;13.70;98.60;;;;;;5012842;28;20964;-34
2022/04/30 11:26:36;;;;;;;5.05;3.72;;;13.70;97.30;;;;;;5013869;28;20167;-33
2022/04/30 11:29:01;;;;;;;8.50;5.65;;;13.40;97.20;;;;;;5022831;28;20030;-33
2022/04/30 11:31:27;;;;;;;5.78;4.65;;;13.40;99.90;;;;;;5023802;28;20025;-33
2022/04/30 11:33:52;;;;;;;6.55;4.95;;;13.60;99.20;;;;;;5024763;28;20453;-36
2022/04/30 11:36:18;;;;;;;6.35;5.20;;;13.80;97.50;;;;;;5022041;28;20029;-34
2022/04/30 11:38:51;;;;;;;5.45;4.43;;;14.00;97.00;;;;;;5020468;28;20094;-33
2022/04/30 11:41:17;;;;;;;5.90;5.30;;;14.00;99.90;;;;;;5015906;28;20065;-34
2022/04/30 11:43:43;;;;;;;6.20;4.75;;;13.80;99.40;;;;;;5019891;28;20124;-35
2022/04/30 11:46:08;;;;;;;7.75;5.15;;;13.70;97.30;;;;;;5013101;28;21185;-34
2022/04/30 11:48:39;;;;;;;6.85;5.32;;;13.60;95.80;;;;;;5019021;28;20457;-33
2022/04/30 11:51:06;;;;;;;9.40;6.05;;;13.70;99.70;;;;;;5015547;28;20078;-34
2022/04/30 11:53:33;;;;;;;4.90;3.90;;;13.80;98.10;;;;;;5018725;28;20033;-33
2022/04/30 11:55:58;;;;;;;7.28;3.03;;;13.70;97.60;;;;;;5012804;28;20119;-33
2022/04/30 11:58:25;;;;;;;5.07;4.03;;;13.50;92.70;;;;;;5019090;28;20026;-33
2022/04/30 12:00:54;;;;;;;5.20;4.00;;;13.50;95.60;;;;;;5017731;28;20041;-34
2022/04/30 12:03:27;;;;;;;4.43;3.95;;;13.50;96.70;;;;;;5022282;28;20367;-33
2022/04/30 12:05:52;;;;;;;7.78;4.65;;;13.60;99.90;;;;;;5018915;28;20555;-34
2022/04/30 12:08:18;;;;;;;5.95;4.78;;;13.50;97.90;;;;;;5019615;28;20022;-32
2022/04/30 12:10:57;;;;;;;7.25;5.20;;;13.50;99.00;;;;;;5017851;28;20112;-34
2022/04/30 12:13:26;;;;;;;3.75;3.40;;;13.50;99.20;;;;;;5006681;28;20053;-34
2022/04/30 12:16:07;;;;;;;6.35;4.57;;;13.50;94.40;;;;;;5017825;28;20036;-34
2022/04/30 12:26:58;;;;;;;5.63;5.00;;;13.70;99.90;;;;;;5014561;28;20036;-33
2022/04/30 12:29:24;;;;;;;7.60;4.75;;;13.80;98.40;;;;;;5019450;28;20028;-33
2022/04/30 12:31:53;;;;;;;7.80;4.50;;;13.90;99.90;;;;;;5023489;28;20557;-33
2022/04/30 12:34:19;;;;;;;7.25;4.57;;;13.90;95.20;;;;;;5020106;28;20113;-33
2022/04/30 12:36:55;;;;;;;5.57;3.92;;;13.80;96.50;;;;;;5014736;28;20082;-33
2022/04/30 12:39:23;;;;;;;5.63;4.70;;;13.80;97.10;;;;;;5012960;28;20029;-33
2022/04/30 12:41:52;;;;;;;6.15;4.57;;;13.80;95.30;;;;;;5019529;28;20098;-34
2022/04/30 12:44:18;;;;;;;5.32;4.50;;;13.70;97.10;;;;;;5024069;28;20046;-33
2022/04/30 12:46:45;;;;;;;6.70;4.47;;;13.60;96.30;;;;;;5017048;28;20421;-33
2022/04/30 12:49:12;;;;;;;6.18;4.55;;;13.60;97.00;;;;;;5023517;28;21254;-32
2022/04/30 12:51:39;;;;;;;6.47;4.78;;;13.60;99.90;;;;;;5017041;28;20036;-32
2022/04/30 12:54:10;;;;;;;6.68;4.75;;;13.40;96.40;;;;;;5023538;28;20033;-33
2022/04/30 12:56:36;;;;;;;4.95;4.45;;;13.40;99.90;;;;;;5021095;28;20033;-32
2022/04/30 12:59:02;;;;;;;6.25;4.35;;;13.50;99.50;;;;;;5018524;28;20570;-33
2022/04/30 13:01:28;;;;;;;5.55;4.20;;;13.60;98.60;;;;;;5048825;28;20045;-33
2022/04/30 13:03:57;;;;;;;6.75;3.70;;;13.50;95.40;;;;;;5020854;28;20033;-31
2022/04/30 13:06:23;;;;;;;6.00;4.78;;;13.50;97.30;;;;;;5021294;28;20038;-32
2022/04/30 13:14:17;;;;;;;6.10;4.47;;;13.70;97.30;;;;;;5014077;28;20064;-32
2022/04/30 13:16:43;;;;;;;6.85;4.25;;;13.70;97.60;;;;;;5020524;28;20502;-34
2022/04/30 13:19:10;;;;;;;5.22;4.15;;;13.70;97.10;;;;;;5028608;28;20120;-33
2022/04/30 13:21:36;;;;;;;5.93;5.00;;;13.70;95.80;;;;;;5021294;28;20042;-34
2022/04/30 13:24:02;;;;;;;4.93;4.00;;;13.70;97.90;;;;;;5028456;28;20032;-33
2022/04/30 13:26:28;;;;;;;5.15;4.60;;;13.70;99.20;;;;;;5025978;28;20669;-32
2022/04/30 13:28:54;;;;;;;6.50;4.50;;;13.60;98.20;;;;;;5027012;28;20446;-33
2022/04/30 13:31:20;;;;;;;6.88;4.82;;;13.50;96.40;;;;;;5022211;28;20109;-32
2022/04/30 13:33:46;;;;;;;5.13;4.25;;;13.40;98.40;;;;;;5014695;28;20557;-33
2022/04/30 13:36:11;;;;;;;6.03;4.65;;;13.40;97.40;;;;;;5026726;28;20459;-31
2022/04/30 13:38:38;;;;;;;8.20;4.88;;;13.40;99.90;;;;;;5025433;28;20430;-32